Cape Texel — V7RC4 — position and weather

sailwx.info

Track history (hours):
 
Tides and Currents Weather Stations Pressure Air Temp Water Temp Dewpoint Dewpoint Depression Visibility Wind Speed Wind Dir Waves Ship Positions

Cape Texel

Last reported at 2016-Jul-20 05:22 UTC. Time now 2016-Jul-23 11:16 UTC.
Position N 01°55' E 102°21'.

Length 228 m; draft 8.1 m.

Type: Ship (hazmat cat A). MMSI: 538090383.

Date/timePositionNaut miles runAvg speedWind from/ knotsBaromVisibWave heightAir tempDewpointWater temp
2016-Jul-20 05:22N 01°55' E 102°21'1113.1
2016-Jul-20 04:33N 01°51' E 102°31'1212.3
2016-Jul-20 03:33N 01°45' E 102°42'7011.6
2016-Jul-19 21:31N 01°10' E 103°42'9 9.2
2016-Jul-19 20:33N 01°12' E 103°51'1010.1
2016-Jul-19 19:33N 01°16' E 103°60'1010.3
2016-Jul-19 18:33N 01°17' E 104°10'3 0.2
2016-Jul-19 01:28N 01°15' E 104°07'1111.5
2016-Jul-19 00:33N 01°15' E 103°57'3 2.4
2016-Jul-18 23:31N 01°16' E 103°54'0 0.2
2016-Jul-18 22:28N 01°16' E 103°55'0 0.1
2016-Jul-18 21:25N 01°16' E 103°55'0 0.0
2016-Jul-18 20:22N 01°16' E 103°55'0 0.0
2016-Jul-18 19:28N 01°16' E 103°55'0 0.0
2016-Jul-18 18:28N 01°16' E 103°55'0 0.1
2016-Jul-18 17:22N 01°16' E 103°55'0 0.1
2016-Jul-18 16:31N 01°16' E 103°55'0 0.1
2016-Jul-18 15:28N 01°16' E 103°55'0 0.0
2016-Jul-18 14:28N 01°16' E 103°55'0 0.1
2016-Jul-18 13:22N 01°16' E 103°55'0 0.1
2016-Jul-18 12:28N 01°16' E 103°55'0 0.0
2016-Jul-18 11:28N 01°16' E 103°55'0 0.0
2016-Jul-18 10:28N 01°16' E 103°55'0 0.0
2016-Jul-18 09:28N 01°16' E 103°55'0 0.1
2016-Jul-18 08:28N 01°16' E 103°55'0 0.2
2016-Jul-18 07:28N 01°16' E 103°55'0 0.2
2016-Jul-18 06:33N 01°16' E 103°55'4 4.1
2016-Jul-18 05:33N 01°15' E 103°59'7 6.7
2016-Jul-18 04:33N 01°12' E 103°53'8712.5
2016-Jul-17 21:32N 01°46' E 102°32'1313.2
2016-Jul-17 20:33N 01°52' E 102°21'  
Track history (hours):
 
Tides and Currents Weather Stations Pressure Air Temp Water Temp Dewpoint Dewpoint Depression Visibility Wind Speed Wind Dir Waves Ship Positions

Cape Texel

Last reported at 2016-Jul-20 05:22 UTC. Time now 2016-Jul-23 11:16 UTC.
Position N 01°55' E 102°21'.

Length 228 m; draft 8.1 m.

Type: Ship (hazmat cat A). MMSI: 538090383.

Date/timePositionNaut miles runAvg speedWind from/ knotsBaromVisibWave heightAir tempDewpointWater temp
2016-Jul-20 05:22N 01°55' E 102°21'1113.1
2016-Jul-20 04:33N 01°51' E 102°31'1212.3
2016-Jul-20 03:33N 01°45' E 102°42'7011.6
2016-Jul-19 21:31N 01°10' E 103°42'9 9.2
2016-Jul-19 20:33N 01°12' E 103°51'1010.1
2016-Jul-19 19:33N 01°16' E 103°60'1010.3
2016-Jul-19 18:33N 01°17' E 104°10'3 0.2
2016-Jul-19 01:28N 01°15' E 104°07'1111.5
2016-Jul-19 00:33N 01°15' E 103°57'3 2.4
2016-Jul-18 23:31N 01°16' E 103°54'0 0.2
2016-Jul-18 22:28N 01°16' E 103°55'0 0.1
2016-Jul-18 21:25N 01°16' E 103°55'0 0.0
2016-Jul-18 20:22N 01°16' E 103°55'0 0.0
2016-Jul-18 19:28N 01°16' E 103°55'0 0.0
2016-Jul-18 18:28N 01°16' E 103°55'0 0.1
2016-Jul-18 17:22N 01°16' E 103°55'0 0.1
2016-Jul-18 16:31N 01°16' E 103°55'0 0.1
2016-Jul-18 15:28N 01°16' E 103°55'0 0.0
2016-Jul-18 14:28N 01°16' E 103°55'0 0.1
2016-Jul-18 13:22N 01°16' E 103°55'0 0.1
2016-Jul-18 12:28N 01°16' E 103°55'0 0.0
2016-Jul-18 11:28N 01°16' E 103°55'0 0.0
2016-Jul-18 10:28N 01°16' E 103°55'0 0.0
2016-Jul-18 09:28N 01°16' E 103°55'0 0.1
2016-Jul-18 08:28N 01°16' E 103°55'0 0.2
2016-Jul-18 07:28N 01°16' E 103°55'0 0.2
2016-Jul-18 06:33N 01°16' E 103°55'4 4.1
2016-Jul-18 05:33N 01°15' E 103°59'7 6.7
2016-Jul-18 04:33N 01°12' E 103°53'8712.5
2016-Jul-17 21:32N 01°46' E 102°32'1313.2
2016-Jul-17 20:33N 01°52' E 102°21'  

Dump ship's entire track history